createdAt,value
2022-09-07T00:12:02.356Z,101361.38
2022-09-07T00:21:10.919Z,101366.31
2022-09-07T00:27:09.734Z,101361.03
2022-09-07T00:38:30.347Z,101355.25
2022-09-07T00:40:43.612Z,101364.56
2022-09-07T00:45:23.329Z,101358.13
2022-09-07T00:47:40.944Z,101355.22
2022-09-07T00:52:57.213Z,101363.47
2022-09-07T00:58:53.248Z,101349.47
2022-09-07T01:01:00.523Z,101353.84
2022-09-07T01:08:38.689Z,101357.25
2022-09-07T01:10:44.688Z,101350.56
2022-09-07T01:12:54.730Z,101352.19
2022-09-07T01:18:35.209Z,101349.72
2022-09-07T01:21:14.327Z,101350.63
2022-09-07T01:23:59.764Z,101346.41
2022-09-07T01:26:41.621Z,101339.22
2022-09-07T01:28:55.232Z,101341.50
2022-09-07T01:31:22.612Z,101343.13
2022-09-07T01:33:42.458Z,101339.03
2022-09-07T01:38:19.424Z,101337.31
2022-09-07T01:40:40.979Z,101340.91
2022-09-07T01:43:02.454Z,101336.50
2022-09-07T01:45:15.662Z,101344.00
2022-09-07T01:47:58.001Z,101331.91
2022-09-07T01:53:04.293Z,101327.09
2022-09-07T01:55:32.701Z,101325.69
2022-09-07T01:57:45.726Z,101324.06
2022-09-07T02:00:17.801Z,101322.81
2022-09-07T02:05:11.994Z,101324.59
2022-09-07T02:07:23.575Z,101322.44
2022-09-07T02:09:54.420Z,101321.94
2022-09-07T02:12:01.279Z,101324.69
2022-09-07T02:14:26.374Z,101323.19
2022-09-07T02:16:36.210Z,101316.81
2022-09-07T02:21:08.802Z,101327.31
2022-09-07T02:23:37.890Z,101325.03
2022-09-07T02:25:48.807Z,101325.97
2022-09-07T02:28:14.178Z,101319.63
2022-09-07T02:30:30.111Z,101321.06
2022-09-07T02:32:36.804Z,101318.91
2022-09-07T02:34:40.730Z,101312.38
2022-09-07T02:36:50.741Z,101311.75
2022-09-07T02:41:49.568Z,101312.38
2022-09-07T02:43:52.581Z,101320.84
2022-09-07T02:46:26.559Z,101309.88
2022-09-07T02:49:05.677Z,101319.31
2022-09-07T02:51:38.161Z,101314.00
2022-09-07T02:54:35.497Z,101309.09
2022-09-07T02:57:18.966Z,101310.50
2022-09-07T03:00:02.459Z,101308.06
2022-09-07T03:02:11.044Z,101303.44
2022-09-07T03:04:29.389Z,101311.53
2022-09-07T03:07:01.913Z,101316.88
2022-09-07T03:09:08.217Z,101310.53
2022-09-07T03:11:13.114Z,101313.91
2022-09-07T03:13:26.573Z,101308.38
2022-09-07T03:15:30.752Z,101310.13
2022-09-07T03:17:36.988Z,101315.84
2022-09-07T03:19:42.759Z,101326.59
2022-09-07T04:07:25.927Z,101308.44
2022-09-07T04:09:27.972Z,101310.97
2022-09-07T04:11:29.983Z,101310.22
2022-09-07T04:13:32.367Z,101311.75
2022-09-07T04:15:34.447Z,101311.84
2022-09-07T04:17:36.493Z,101307.88
2022-09-07T04:19:38.500Z,101310.31
2022-09-07T04:21:41.770Z,101313.19
2022-09-07T04:23:43.940Z,101307.66
2022-09-07T04:25:52.324Z,101318.94
2022-09-07T04:27:56.029Z,101323.53
2022-09-07T04:29:58.028Z,101322.50
2022-09-07T04:32:00.045Z,101318.09
2022-09-07T04:34:02.306Z,101316.97
2022-09-07T04:36:04.846Z,101312.88
2022-09-07T04:38:07.148Z,101306.75
2022-09-07T04:40:09.876Z,101308.41
2022-09-07T04:42:11.912Z,101301.81
2022-09-07T04:44:16.976Z,101288.34
2022-09-07T04:46:30.302Z,101278.78
2022-09-07T04:48:32.266Z,101276.41
2022-09-07T04:50:34.327Z,101273.16
2022-09-07T04:52:36.385Z,101282.75
2022-09-07T04:54:38.705Z,101288.28
2022-09-07T04:56:40.723Z,101285.22
2022-09-07T04:58:42.715Z,101273.66
2022-09-07T05:00:44.705Z,101269.06
2022-09-07T05:02:46.753Z,101279.50
2022-09-07T05:04:48.845Z,101292.44
2022-09-07T05:06:50.945Z,101305.41
2022-09-07T05:08:53.866Z,101302.03
2022-09-07T05:10:56.797Z,101305.31
2022-09-07T05:12:58.839Z,101303.31
2022-09-07T05:15:01.693Z,101313.53
2022-09-07T05:17:04.616Z,101303.91
2022-09-07T05:19:06.609Z,101306.34
2022-09-07T05:21:16.980Z,101306.34
2022-09-07T05:23:19.060Z,101306.34
2022-09-07T05:25:21.074Z,101311.59
2022-09-07T05:27:23.073Z,101308.94
2022-09-07T05:31:48.316Z,101307.72
2022-09-07T05:36:16.671Z,101307.00
2022-09-07T05:38:18.671Z,101311.41
2022-09-07T05:40:22.310Z,101303.56
2022-09-07T05:42:24.380Z,101309.28
2022-09-07T05:46:44.161Z,101304.78
2022-09-07T05:48:46.211Z,101311.66
2022-09-07T05:50:52.717Z,101313.19
2022-09-07T05:52:54.750Z,101314.22
2022-09-07T05:55:13.059Z,101313.41
2022-09-07T05:57:18.747Z,101310.31
2022-09-07T05:59:20.711Z,101316.06
2022-09-07T06:01:22.733Z,101311.84
2022-09-07T06:03:25.097Z,101308.69
2022-09-07T06:05:27.226Z,101306.44
2022-09-07T06:07:29.271Z,101306.81
2022-09-07T06:09:31.521Z,101309.78
2022-09-07T06:11:33.512Z,101307.44
2022-09-07T06:13:35.733Z,101304.34
2022-09-07T06:15:37.804Z,101304.06
2022-09-07T06:17:39.979Z,101298.72
2022-09-07T06:19:41.982Z,101298.41
2022-09-07T06:21:44.020Z,101294.75
2022-09-07T06:23:46.521Z,101290.44
2022-09-07T06:25:49.859Z,101285.06
2022-09-07T06:27:53.975Z,101291.84
2022-09-07T06:29:56.030Z,101287.63
2022-09-07T06:34:20.072Z,101293.81
2022-09-07T06:36:23.918Z,101291.25
2022-09-07T06:38:31.843Z,101288.53
2022-09-07T06:40:34.837Z,101294.16
2022-09-07T06:42:36.841Z,101288.78
2022-09-07T06:44:38.968Z,101290.81
2022-09-07T06:49:02.940Z,101293.19
2022-09-07T06:51:07.901Z,101298.78
2022-09-07T06:55:32.441Z,101300.78
2022-09-07T06:57:34.511Z,101293.31
2022-09-07T06:59:36.744Z,101294.97
2022-09-07T07:01:38.793Z,101290.50
2022-09-07T07:03:41.280Z,101291.63
2022-09-07T07:05:50.898Z,101287.75
2022-09-07T07:07:52.988Z,101297.91
2022-09-07T07:09:55.216Z,101300.69
2022-09-07T07:11:57.220Z,101302.06
2022-09-07T07:14:00.053Z,101301.75
2022-09-07T07:16:10.037Z,101293.59
2022-09-07T07:18:20.776Z,101305.69
2022-09-07T07:20:32.980Z,101302.75
2022-09-07T07:22:50.454Z,101309.28
2022-09-07T07:24:52.477Z,101311.88
2022-09-07T07:26:54.477Z,101308.59
2022-09-07T07:31:07.194Z,101302.03
2022-09-07T07:33:11.548Z,101305.88
2022-09-07T07:35:14.260Z,101300.31
2022-09-07T07:37:16.301Z,101308.16
2022-09-07T07:41:57.658Z,101296.53
2022-09-07T07:44:03.259Z,101300.38
2022-09-07T07:46:06.342Z,101289.81
2022-09-07T07:48:09.143Z,101289.88
2022-09-07T07:55:00.971Z,101304.81
2022-09-07T07:57:04.234Z,101299.63
2022-09-07T07:59:06.430Z,101307.81
2022-09-07T08:01:12.473Z,101302.41
2022-09-07T08:03:14.481Z,101303.25
2022-09-07T08:05:17.222Z,101304.25
2022-09-07T08:07:19.579Z,101303.25
2022-09-07T08:09:21.581Z,101316.50
2022-09-07T08:11:23.654Z,101305.69
2022-09-07T08:13:26.213Z,101291.50
2022-09-07T08:15:28.190Z,101295.78
2022-09-07T08:17:30.139Z,101296.97
2022-09-07T08:19:32.108Z,101300.19
2022-09-07T08:21:34.062Z,101288.06
2022-09-07T08:23:37.290Z,101281.28
2022-09-07T08:25:39.308Z,101289.25
2022-09-07T08:27:41.285Z,101290.50
2022-09-07T08:29:43.268Z,101288.00
2022-09-07T08:31:45.531Z,101280.91
2022-09-07T08:33:47.516Z,101281.41
2022-09-07T08:36:01.264Z,101275.09
2022-09-07T08:38:03.216Z,101269.47
2022-09-07T08:40:05.738Z,101263.03
2022-09-07T08:42:15.396Z,101264.53
2022-09-07T08:44:47.631Z,101257.84
2022-09-07T08:46:55.112Z,101256.72
2022-09-07T08:48:57.309Z,101247.72
2022-09-07T08:51:10.275Z,101252.75
2022-09-07T08:53:19.593Z,101253.03
2022-09-07T08:55:21.485Z,101252.50
2022-09-07T08:57:27.402Z,101252.75
2022-09-07T08:59:59.919Z,101251.06
2022-09-07T09:04:29.439Z,101237.59
2022-09-07T09:07:20.983Z,101244.69
2022-09-07T09:10:01.077Z,101223.44
2022-09-07T09:12:27.593Z,101236.84
2022-09-07T09:15:00.191Z,101229.56
2022-09-07T09:17:10.887Z,101219.31
2022-09-07T09:19:32.087Z,101225.41
2022-09-07T09:21:35.613Z,101220.81
2022-09-07T09:23:41.589Z,101221.38
2022-09-07T09:26:04.838Z,101223.16
2022-09-07T09:28:11.126Z,101214.56
2022-09-07T09:30:19.609Z,101219.22
2022-09-07T09:32:52.892Z,101214.38
2022-09-07T09:35:15.369Z,101217.84
2022-09-07T09:37:17.424Z,101224.63
2022-09-07T09:39:33.955Z,101227.34
2022-09-07T09:41:36.930Z,101209.81
2022-09-07T09:43:56.603Z,101221.97
2022-09-07T09:46:13.895Z,101225.38
2022-09-07T09:48:40.457Z,101221.91
2022-09-07T09:53:34.851Z,101221.09
2022-09-07T09:55:37.414Z,101217.25
2022-09-07T10:00:29.323Z,101215.41
2022-09-07T10:04:55.205Z,101200.50
2022-09-07T10:07:20.708Z,101205.13
2022-09-07T10:09:25.970Z,101190.75
2022-09-07T10:14:19.292Z,101191.56
2022-09-07T10:16:21.546Z,101187.34
2022-09-07T10:18:36.041Z,101192.59
2022-09-07T10:20:38.216Z,101185.41
2022-09-07T10:22:40.883Z,101187.09
2022-09-07T10:24:42.820Z,101194.72
2022-09-07T10:26:44.905Z,101186.38
2022-09-07T10:31:26.378Z,101180.72
2022-09-07T10:36:37.572Z,101182.25
2022-09-07T10:38:46.152Z,101173.53
2022-09-07T10:41:04.293Z,101182.06
2022-09-07T10:43:31.895Z,101181.09
2022-09-07T10:45:58.297Z,101179.44
2022-09-07T10:48:35.608Z,101177.56
2022-09-07T10:51:05.039Z,101180.22
2022-09-07T10:53:46.630Z,101170.53
2022-09-07T10:56:26.913Z,101175.25
2022-09-07T10:59:18.925Z,101169.75
2022-09-07T11:01:33.428Z,101180.47
2022-09-07T11:04:29.560Z,101167.81
2022-09-07T11:06:41.723Z,101177.72
2022-09-07T11:09:17.033Z,101177.97
2022-09-07T11:14:13.619Z,101165.50
2022-09-07T11:24:11.282Z,101151.66
2022-09-07T11:26:25.110Z,101153.75
2022-09-07T11:28:45.885Z,101151.69
2022-09-07T11:31:00.231Z,101144.63
2022-09-07T11:33:35.514Z,101143.53
2022-09-07T11:35:43.902Z,101140.72
2022-09-07T11:37:49.576Z,101147.16
2022-09-07T11:40:36.510Z,101135.03
2022-09-07T11:43:22.813Z,101140.28
2022-09-07T11:46:21.858Z,101142.31
2022-09-07T11:48:31.187Z,101136.56
2022-09-07T11:50:36.120Z,101138.66
2022-09-07T11:52:40.611Z,101138.28
2022-09-07T11:54:53.563Z,101136.78
2022-09-07T11:57:15.481Z,101151.94
2022-09-07T11:59:20.040Z,101143.38
2022-09-07T12:01:56.627Z,101139.44
2022-09-07T12:04:51.714Z,101138.31
2022-09-07T12:07:33.415Z,101129.31
2022-09-07T12:09:44.122Z,101127.53
2022-09-07T12:12:08.159Z,101115.19
2022-09-07T12:14:30.841Z,101130.19
2022-09-07T12:16:59.553Z,101124.50
2022-09-07T12:19:22.032Z,101127.81
2022-09-07T12:21:30.836Z,101122.75
2022-09-07T12:23:33.389Z,101118.25
2022-09-07T12:25:35.397Z,101115.75
2022-09-07T12:27:38.780Z,101124.13
2022-09-07T12:29:45.115Z,101118.69
2022-09-07T12:31:58.874Z,101116.00
2022-09-07T12:34:38.503Z,101116.06
2022-09-07T12:36:41.275Z,101107.66
2022-09-07T12:39:30.729Z,101100.28
2022-09-07T12:42:32.014Z,101096.59
2022-09-07T12:44:19.227Z,101097.97
2022-09-07T12:46:43.935Z,101101.13
2022-09-07T12:49:08.681Z,101104.97
2022-09-07T12:54:06.815Z,101091.97
2022-09-07T12:56:38.419Z,101083.31
2022-09-07T12:58:59.345Z,101075.78
2022-09-07T13:01:35.464Z,101075.59
2022-09-07T13:04:12.680Z,101076.50
2022-09-07T13:09:16.697Z,101071.84
2022-09-07T13:11:21.523Z,101071.59
2022-09-07T13:16:15.525Z,101060.00
2022-09-07T13:18:29.180Z,101056.28
2022-09-07T13:20:36.129Z,101058.44
2022-09-07T13:22:39.555Z,101052.16
2022-09-07T13:24:56.338Z,101050.03
2022-09-07T13:27:11.210Z,101051.63
2022-09-07T13:29:13.871Z,101056.75
2022-09-07T13:32:07.994Z,101069.63
2022-09-07T13:35:01.094Z,101053.25
2022-09-07T13:37:12.175Z,101037.13
2022-09-07T13:39:16.161Z,101047.19
2022-09-07T13:41:32.069Z,101049.69
2022-09-07T13:43:34.057Z,101046.59
2022-09-07T13:45:55.760Z,101039.66
2022-09-07T13:48:25.266Z,101034.88
2022-09-07T13:50:36.288Z,101025.91
2022-09-07T13:53:15.266Z,101036.97
2022-09-07T13:56:12.801Z,101028.25
2022-09-07T13:58:35.601Z,101025.91
2022-09-07T14:00:37.720Z,101026.88
2022-09-07T14:02:39.750Z,101026.56
2022-09-07T14:04:43.130Z,101013.75
2022-09-07T14:06:45.129Z,101021.75
2022-09-07T14:08:49.524Z,101017.72
2022-09-07T14:10:51.491Z,101016.69
2022-09-07T14:13:08.044Z,101021.66
2022-09-07T14:15:22.348Z,101014.00
2022-09-07T14:17:24.343Z,101010.63
2022-09-07T14:19:39.866Z,101014.16
2022-09-07T14:21:41.888Z,101011.41
2022-09-07T14:23:43.878Z,101003.00
2022-09-07T14:28:31.401Z,101014.84
2022-09-07T14:30:33.601Z,101011.16
2022-09-07T14:32:36.216Z,101010.22
2022-09-07T14:34:38.210Z,101010.91
2022-09-07T14:36:45.858Z,101015.13
2022-09-07T14:41:18.465Z,101022.22
2022-09-07T14:43:37.002Z,101013.13
2022-09-07T14:45:39.335Z,101008.66
2022-09-07T14:47:41.359Z,101006.94
2022-09-07T14:49:43.608Z,101007.66
2022-09-07T14:51:48.427Z,100992.88
2022-09-07T14:53:51.841Z,100995.63
2022-09-07T14:56:02.272Z,100992.34
2022-09-07T14:58:16.427Z,100987.78
2022-09-07T15:00:32.170Z,100991.09
2022-09-07T15:02:36.802Z,100988.75
2022-09-07T15:04:38.966Z,100989.69
2022-09-07T15:09:07.004Z,100990.59
2022-09-07T15:13:35.959Z,100982.44
2022-09-07T15:15:39.608Z,100977.50
2022-09-07T15:17:43.373Z,100976.94
2022-09-07T15:19:45.738Z,100986.06
2022-09-07T15:21:47.721Z,100987.13
2022-09-07T15:23:54.284Z,100998.06
2022-09-07T15:25:56.294Z,100988.34
2022-09-07T15:27:58.368Z,100983.13
2022-09-07T15:30:00.393Z,100988.50
2022-09-07T15:32:04.680Z,100983.19
2022-09-07T15:34:18.600Z,100990.84
2022-09-07T15:36:20.651Z,100985.31
2022-09-07T15:41:20.665Z,100981.66
2022-09-07T15:43:23.047Z,100976.13
2022-09-07T15:45:25.501Z,100977.53
2022-09-07T15:47:47.268Z,100979.94
2022-09-07T15:49:51.380Z,100974.50
2022-09-07T15:52:08.928Z,100968.59
2022-09-07T15:54:13.509Z,100977.00
2022-09-07T15:56:17.239Z,100976.50
2022-09-07T15:58:21.901Z,100979.59
2022-09-07T16:00:23.937Z,100981.88
2022-09-07T16:04:48.064Z,100959.47
2022-09-07T16:06:50.918Z,100969.53
2022-09-07T16:08:53.377Z,100969.22
2022-09-07T16:10:56.321Z,100970.97
2022-09-07T16:13:11.326Z,100966.78
2022-09-07T16:15:18.250Z,100961.34
2022-09-07T16:17:34.400Z,100961.34
2022-09-07T16:19:41.103Z,100960.31
2022-09-07T16:21:43.274Z,100964.53
2022-09-07T16:23:48.855Z,100963.63
2022-09-07T16:25:58.407Z,100961.69
2022-09-07T16:28:00.435Z,100959.03
2022-09-07T16:30:02.437Z,100961.13
2022-09-07T16:34:26.389Z,100967.84
2022-09-07T16:36:28.461Z,100954.56
2022-09-07T16:38:47.599Z,100957.06
2022-09-07T16:40:50.128Z,100956.69
2022-09-07T16:42:52.224Z,100957.56
2022-09-07T16:44:54.793Z,100944.63
2022-09-07T16:46:56.762Z,100952.72
2022-09-07T16:48:58.726Z,100949.09
2022-09-07T16:51:02.637Z,100939.06
2022-09-07T16:53:04.828Z,100939.88
2022-09-07T16:55:07.126Z,100944.72
2022-09-07T16:57:09.127Z,100939.91
2022-09-07T16:59:13.819Z,100947.56
2022-09-07T17:01:18.155Z,100950.34
2022-09-07T17:03:20.286Z,100950.75
2022-09-07T17:05:22.334Z,100944.69
2022-09-07T17:07:24.358Z,100953.94
2022-09-07T17:09:28.649Z,100954.72
2022-09-07T17:11:33.002Z,100949.47
2022-09-07T17:13:36.151Z,100947.88
2022-09-07T17:15:38.129Z,100955.91
2022-09-07T17:17:40.098Z,100950.19
2022-09-07T17:19:42.398Z,100955.00
2022-09-07T17:21:46.188Z,100967.84
2022-09-07T17:23:54.929Z,100965.81
2022-09-07T17:26:14.179Z,100955.75
2022-09-07T17:28:16.527Z,100958.94
2022-09-07T17:30:20.757Z,100962.88
2022-09-07T17:32:25.317Z,100952.41
2022-09-07T17:34:28.582Z,100962.84
2022-09-07T17:36:30.759Z,100959.53
2022-09-07T17:40:55.162Z,100961.00
2022-09-07T17:45:19.196Z,100961.25
2022-09-07T17:47:21.397Z,100956.78
2022-09-07T17:49:24.103Z,100957.06
2022-09-07T17:51:28.228Z,100959.88
2022-09-07T17:53:30.336Z,100966.69
2022-09-07T17:55:32.326Z,100963.69
2022-09-07T17:57:34.928Z,100966.06
2022-09-07T18:01:58.844Z,100969.34
2022-09-07T18:04:00.824Z,100970.53
2022-09-07T18:06:03.053Z,100968.81
2022-09-07T18:08:05.538Z,100972.75
2022-09-07T18:10:07.983Z,100991.09
2022-09-07T18:12:09.975Z,100984.56
2022-09-07T18:14:13.625Z,100974.09
2022-09-07T18:16:17.578Z,100980.47
2022-09-07T18:18:20.318Z,100974.00
2022-09-07T18:20:24.185Z,100971.25
2022-09-07T18:22:26.219Z,100970.47
2022-09-07T18:24:28.255Z,100972.28
2022-09-07T18:26:30.589Z,100959.31
2022-09-07T18:30:54.503Z,100969.06
2022-09-07T18:32:58.360Z,100971.97
2022-09-07T18:35:01.173Z,100973.03
2022-09-07T18:37:03.341Z,100972.56
2022-09-07T18:39:05.350Z,100968.88
2022-09-07T18:41:12.063Z,100977.56
2022-09-07T18:43:14.453Z,100977.97
2022-09-07T18:45:33.691Z,100987.97
2022-09-07T18:47:35.902Z,100980.22
2022-09-07T18:49:38.112Z,100977.78
2022-09-07T18:54:02.422Z,100992.88
2022-09-07T18:56:06.400Z,100984.91
2022-09-07T18:58:08.361Z,100987.22
2022-09-07T19:00:11.767Z,100985.03
2022-09-07T19:02:14.367Z,100980.97
2022-09-07T19:04:16.540Z,100980.53
2022-09-07T19:06:18.513Z,100976.41
2022-09-07T19:08:20.486Z,100979.53
2022-09-07T19:10:23.159Z,100972.44
2022-09-07T19:12:25.106Z,100976.75
2022-09-07T19:14:27.631Z,100949.53
2022-09-07T19:16:29.838Z,100954.41
2022-09-07T19:18:32.160Z,100953.53
2022-09-07T19:20:34.488Z,100964.66
2022-09-07T19:22:36.434Z,100980.34
2022-09-07T19:24:38.416Z,100973.00
2022-09-07T19:26:43.006Z,100979.03
2022-09-07T19:28:52.961Z,100977.13
2022-09-07T19:30:55.113Z,100962.97
2022-09-07T19:33:00.718Z,100962.44
2022-09-07T19:35:05.753Z,100957.50
2022-09-07T19:37:10.071Z,100961.38
2022-09-07T19:39:12.094Z,100958.41
2022-09-07T19:41:17.082Z,100964.47
2022-09-07T19:43:19.107Z,100954.28
2022-09-07T19:45:21.231Z,100957.41
2022-09-07T19:47:24.022Z,100953.63
2022-09-07T19:49:25.932Z,100952.19
2022-09-07T19:51:27.884Z,100955.59
2022-09-07T19:53:34.325Z,100952.56
2022-09-07T19:55:36.372Z,100949.69
2022-09-07T19:57:38.330Z,100954.94
2022-09-07T19:59:40.296Z,100959.47
2022-09-07T20:01:47.354Z,100966.84
2022-09-07T20:03:58.714Z,100968.03
2022-09-07T20:06:08.905Z,100968.03
2022-09-07T20:08:10.888Z,100972.00
2022-09-07T20:10:12.844Z,100968.69
2022-09-07T20:12:14.813Z,100970.38
2022-09-07T20:14:17.107Z,100971.09
2022-09-07T20:16:19.463Z,100969.03
2022-09-07T20:18:22.152Z,100967.97
2022-09-07T20:20:24.202Z,100966.44
2022-09-07T20:22:26.173Z,100963.56
2022-09-07T20:24:28.511Z,100973.66
2022-09-07T20:26:32.347Z,100972.66
2022-09-07T20:28:34.612Z,100962.63
2022-09-07T20:30:42.414Z,100969.28
2022-09-07T20:32:44.502Z,100963.47
2022-09-07T20:34:46.489Z,100963.09
2022-09-07T20:36:51.390Z,100959.41
2022-09-07T20:38:55.218Z,100972.72
2022-09-07T20:40:59.628Z,100965.59
2022-09-07T20:43:01.588Z,100958.66
2022-09-07T20:45:03.829Z,100950.28
2022-09-07T20:47:05.937Z,100943.44
2022-09-07T20:49:07.938Z,100951.19
2022-09-07T20:51:12.801Z,100954.41
2022-09-07T20:53:14.751Z,100957.50
2022-09-07T20:55:16.949Z,100956.91
2022-09-07T20:57:18.996Z,100967.13
2022-09-07T20:59:21.267Z,100958.34
2022-09-07T21:01:23.740Z,100962.97
2022-09-07T21:03:25.951Z,100973.31
2022-09-07T21:05:28.013Z,100974.03
2022-09-07T21:07:30.033Z,100965.66
2022-09-07T21:09:32.027Z,100969.97
2022-09-07T21:11:35.517Z,100968.97
2022-09-07T21:13:37.625Z,100968.03
2022-09-07T21:15:44.081Z,100964.47
2022-09-07T21:17:46.036Z,100961.56
2022-09-07T21:19:47.976Z,100971.09
2022-09-07T21:21:49.958Z,100970.19
2022-09-07T21:23:59.900Z,100974.16
2022-09-07T21:26:02.098Z,100976.38
2022-09-07T21:28:04.036Z,100978.72
2022-09-07T21:30:06.614Z,100968.16
2022-09-07T21:32:08.556Z,100976.44
2022-09-07T21:34:10.622Z,100967.50
2022-09-07T21:36:13.217Z,100967.63
2022-09-07T21:38:15.178Z,100961.66
2022-09-07T21:40:17.441Z,100961.94
2022-09-07T21:42:19.436Z,100959.75
2022-09-07T21:44:21.922Z,100960.69
2022-09-07T21:46:24.318Z,100963.91
2022-09-07T21:48:26.353Z,100961.13
2022-09-07T21:50:28.293Z,100956.75
2022-09-07T21:52:30.251Z,100950.47
2022-09-07T21:54:32.191Z,100957.56
2022-09-07T21:56:34.194Z,100957.56
2022-09-07T21:58:36.217Z,100955.03
2022-09-07T22:00:38.967Z,100957.34
2022-09-07T22:02:40.920Z,100965.06
2022-09-07T22:04:42.911Z,100965.53
2022-09-07T22:06:44.871Z,100968.78
2022-09-07T22:08:46.893Z,100958.81
2022-09-07T22:10:48.914Z,100956.59
2022-09-07T22:12:50.853Z,100967.41
2022-09-07T22:14:52.777Z,100967.75
2022-09-07T22:16:54.722Z,100964.28
2022-09-07T22:18:56.652Z,100965.91
2022-09-07T22:21:13.248Z,100961.38
2022-09-07T22:23:15.208Z,100974.59
2022-09-07T22:25:17.233Z,100977.06
2022-09-07T22:27:19.190Z,100980.06
2022-09-07T22:29:21.124Z,100960.09
2022-09-07T22:31:28.740Z,100960.91
2022-09-07T22:33:30.821Z,100952.88
2022-09-07T22:35:32.788Z,100957.53
2022-09-07T22:37:34.762Z,100954.66
2022-09-07T22:39:37.098Z,100960.22
2022-09-07T22:41:39.386Z,100964.16
2022-09-07T22:43:41.559Z,100959.75
2022-09-07T22:45:43.500Z,100953.72
2022-09-07T22:47:45.480Z,100947.00
2022-09-07T22:49:47.503Z,100946.19
2022-09-07T22:51:49.522Z,100954.75
2022-09-07T22:53:51.513Z,100949.53
2022-09-07T22:55:53.800Z,100951.84
2022-09-07T22:57:55.753Z,100952.22
2022-09-07T22:59:57.702Z,100956.28
2022-09-07T23:01:59.689Z,100946.84
2022-09-07T23:04:02.481Z,100943.03
2022-09-07T23:06:04.703Z,100942.69
2022-09-07T23:08:06.763Z,100937.00
2022-09-07T23:10:09.271Z,100933.28
2022-09-07T23:12:11.273Z,100935.25
2022-09-07T23:14:19.626Z,100927.59
2022-09-07T23:16:21.813Z,100930.75
2022-09-07T23:18:24.007Z,100924.00
2022-09-07T23:20:25.971Z,100926.91
2022-09-07T23:22:27.935Z,100928.53
2022-09-07T23:24:29.887Z,100927.84
2022-09-07T23:26:32.236Z,100910.63
2022-09-07T23:28:34.700Z,100915.41
2022-09-07T23:30:36.713Z,100909.72
2022-09-07T23:32:38.671Z,100910.53
2022-09-07T23:34:40.744Z,100917.41
2022-09-07T23:36:42.709Z,100904.88
2022-09-07T23:38:45.846Z,100909.25
2022-09-07T23:40:47.858Z,100903.22
2022-09-07T23:42:49.968Z,100889.31
2022-09-07T23:44:51.906Z,100893.25
2022-09-07T23:46:53.971Z,100886.13
2022-09-07T23:48:56.005Z,100892.88
2022-09-07T23:50:57.980Z,100887.53
2022-09-07T23:53:00.020Z,100890.31
2022-09-07T23:55:02.021Z,100897.72
2022-09-07T23:57:04.118Z,100902.00
2022-09-07T23:59:06.401Z,100903.53
